Time;durP1;ratioP1;P1;durP2;ratioP2;P2;SDS_P1;SDS_P2;PMS_P1;PMS_P2;Temp;Humidity;BMP_temperature;BMP_pressure;BME280_temperature;BME280_humidity;BME280_pressure;Samples;Min_cycle;Max_cycle;Signal;HPM_P1;HPM_P2
2022/09/23 00:01:34;;;;;;;9.35;8.38;;;;;;;11.95;89.90;99467.78;5025163;28;20122;-65
2022/09/23 00:03:59;;;;;;;10.15;9.15;;;;;;;11.95;90.20;99467.78;5007695;28;20241;-65
2022/09/23 00:06:28;;;;;;;9.27;8.23;;;;;;;12.10;89.69;99475.09;5020266;28;20033;-65
2022/09/23 00:08:55;;;;;;;8.70;7.75;;;;;;;12.01;89.24;99475.38;5005982;28;20022;-65
2022/09/23 00:11:23;;;;;;;9.18;8.25;;;;;;;11.56;89.99;99445.53;5025111;28;20085;-65
2022/09/23 00:13:52;;;;;;;10.52;9.35;;;;;;;11.74;90.31;99460.56;5016432;28;20026;-65
2022/09/23 00:16:22;;;;;;;8.63;7.82;;;;;;;11.81;90.61;99462.97;5013187;28;20133;-67
2022/09/23 00:18:51;;;;;;;10.05;8.25;;;;;;;11.83;90.18;99468.94;5012931;28;20393;-67
2022/09/23 00:21:18;;;;;;;9.63;8.38;;;;;;;11.90;89.87;99470.47;5024755;28;20074;-67
2022/09/23 00:23:44;;;;;;;10.05;9.05;;;;;;;11.81;90.53;99466.41;5025030;28;20034;-67
2022/09/23 00:26:14;;;;;;;8.85;7.97;;;;;;;11.86;89.52;99464.53;5024945;28;20030;-67
2022/09/23 00:28:40;;;;;;;10.35;9.23;;;;;;;11.86;89.11;99466.28;5024523;28;20333;-67
2022/09/23 00:31:09;;;;;;;11.18;9.65;;;;;;;11.87;89.93;99471.41;5024839;28;20052;-67
2022/09/23 00:33:34;;;;;;;9.55;8.65;;;;;;;11.84;90.34;99470.66;5024776;28;20329;-67
2022/09/23 00:36:02;;;;;;;9.77;8.70;;;;;;;11.56;90.09;99464.53;5024487;28;20054;-67
2022/09/23 00:38:28;;;;;;;9.63;8.63;;;;;;;11.68;90.84;99465.06;5024344;28;20041;-67
2022/09/23 00:40:54;;;;;;;10.05;8.63;;;;;;;11.61;90.78;99466.16;5024520;28;20047;-67
2022/09/23 00:43:35;;;;;;;9.32;8.35;;;;;;;11.63;90.65;99467.81;5024323;28;20022;-67
2022/09/23 00:46:01;;;;;;;9.98;8.95;;;;;;;11.61;90.68;99468.75;5024402;28;20041;-66
2022/09/23 00:48:27;;;;;;;11.15;9.27;;;;;;;11.59;91.17;99468.78;5024188;28;20101;-65
2022/09/23 00:50:54;;;;;;;10.20;8.73;;;;;;;11.54;91.04;99471.53;5024492;28;20042;-65
2022/09/23 00:53:22;;;;;;;9.68;8.02;;;;;;;11.52;90.75;99477.66;5004825;28;20314;-65
2022/09/23 00:55:53;;;;;;;9.57;8.63;;;;;;;11.51;90.83;99471.59;5020173;28;20317;-65
2022/09/23 00:58:24;;;;;;;10.98;8.45;;;;;;;11.57;90.92;99465.38;5024394;28;20037;-65
2022/09/23 01:00:49;;;;;;;9.50;8.57;;;;;;;11.66;89.84;99477.25;5006859;28;20034;-66
2022/09/23 01:03:15;;;;;;;10.07;9.02;;;;;;;11.55;91.13;99474.97;5024296;28;20033;-66
2022/09/23 01:05:41;;;;;;;11.77;9.15;;;;;;;11.52;91.12;99486.25;5024184;28;20072;-66
2022/09/23 01:08:10;;;;;;;12.25;9.23;;;;;;;11.53;90.52;99469.81;5024177;28;20034;-65
2022/09/23 01:11:05;;;;;;;10.38;8.85;;;;;;;11.67;90.43;99479.81;5023839;28;20463;-65
2022/09/23 01:13:50;;;;;;;10.00;8.82;;;;;;;11.71;90.44;99475.34;5023889;28;20029;-65
2022/09/23 01:16:23;;;;;;;10.20;8.68;;;;;;;11.74;89.97;99478.72;5023831;28;20030;-65
2022/09/23 01:19:14;;;;;;;9.43;8.48;;;;;;;11.67;90.19;99478.94;5023915;28;20336;-66
2022/09/23 01:21:57;;;;;;;9.90;8.90;;;;;;;11.71;90.88;99475.34;5023581;28;20045;-65
2022/09/23 01:24:44;;;;;;;9.57;8.68;;;;;;;11.71;90.42;99472.75;5023573;28;20033;-65
2022/09/23 01:27:22;;;;;;;10.48;9.32;;;;;;;11.56;90.84;99472.31;5006327;28;20038;-65
2022/09/23 01:30:15;;;;;;;12.32;8.73;;;;;;;11.74;90.41;99470.06;5023643;28;20026;-65
2022/09/23 01:32:49;;;;;;;9.73;8.13;;;;;;;11.76;90.27;99473.50;5004086;28;20045;-65
2022/09/23 01:35:17;;;;;;;11.60;10.00;;;;;;;11.68;90.19;99465.06;5022478;28;20034;-66
2022/09/23 01:37:47;;;;;;;10.43;9.32;;;;;;;11.60;90.25;99456.66;5023527;28;20034;-66
2022/09/23 01:40:16;;;;;;;11.25;9.73;;;;;;;11.56;90.79;99467.13;5023769;28;20113;-66
2022/09/23 01:43:08;;;;;;;10.30;9.30;;;;;;;11.49;91.56;99465.63;5023336;28;20045;-65
2022/09/23 01:45:42;;;;;;;10.85;9.23;;;;;;;11.47;91.25;99467.41;5023351;28;20087;-66
2022/09/23 01:48:14;;;;;;;9.95;8.82;;;;;;;11.63;90.94;99478.19;5023608;28;20068;-67
2022/09/23 01:51:04;;;;;;;10.50;8.65;;;;;;;11.55;91.19;99468.03;5023305;28;20091;-67
2022/09/23 01:53:59;;;;;;;11.13;8.63;;;;;;;11.53;91.29;99467.22;5003825;28;20218;-66
2022/09/23 01:56:30;;;;;;;11.38;8.82;;;;;;;11.66;90.38;99482.44;5003576;28;20034;-66
2022/09/23 01:59:12;;;;;;;9.77;8.82;;;;;;;11.70;90.50;99486.63;5019745;28;20256;-67
2022/09/23 02:01:45;;;;;;;10.85;9.05;;;;;;;11.68;90.74;99480.63;5023021;28;20032;-67
2022/09/23 02:04:29;;;;;;;10.43;8.90;;;;;;;11.71;90.53;99475.34;5023340;28;20269;-67
2022/09/23 02:07:00;;;;;;;10.50;8.38;;;;;;;11.69;89.91;99474.56;5005774;28;20366;-67
2022/09/23 02:09:34;;;;;;;10.13;8.25;;;;;;;11.62;90.18;99465.28;5023423;28;20033;-66
2022/09/23 02:12:04;;;;;;;11.25;7.82;;;;;;;11.74;89.61;99483.03;5023193;28;20063;-67
2022/09/23 02:15:04;;;;;;;14.52;9.25;;;;;;;11.78;89.77;99482.06;5005475;28;20301;-66
2022/09/23 02:17:50;;;;;;;10.18;8.68;;;;;;;11.67;90.18;99466.84;4989368;28;20325;-66
2022/09/23 02:20:22;;;;;;;10.48;8.80;;;;;;;11.72;89.45;99464.94;5022203;28;20018;-68
2022/09/23 02:23:00;;;;;;;8.75;7.85;;;;;;;11.78;89.51;99471.69;5023203;28;20034;-67
2022/09/23 02:25:36;;;;;;;10.60;8.27;;;;;;;11.74;89.88;99470.06;5023220;28;20345;-66
2022/09/23 02:28:16;;;;;;;9.15;8.25;;;;;;;11.83;89.53;99467.22;5022946;28;20305;-66
2022/09/23 02:31:06;;;;;;;9.45;8.50;;;;;;;11.80;89.05;99475.09;5005893;28;20234;-66
2022/09/23 02:34:21;;;;;;;9.35;8.45;;;;;;;11.87;89.23;99475.75;5022363;28;20034;-65
2022/09/23 02:36:55;;;;;;;11.48;8.25;;;;;;;11.85;89.17;99480.13;4973291;28;20046;-66
2022/09/23 02:39:25;;;;;;;10.68;9.30;;;;;;;11.79;89.45;99470.78;5009657;28;20077;-66
2022/09/23 02:41:59;;;;;;;10.40;9.02;;;;;;;11.80;89.63;99469.91;5026904;28;20033;-66
2022/09/23 02:44:26;;;;;;;9.95;8.95;;;;;;;11.91;89.41;99475.63;5026426;28;20060;-66
2022/09/23 02:46:52;;;;;;;11.23;9.30;;;;;;;11.96;88.59;99477.25;5026668;28;20022;-66
2022/09/23 02:49:32;;;;;;;9.50;8.60;;;;;;;11.94;89.01;99474.69;5026671;28;20041;-66
2022/09/23 02:52:04;;;;;;;11.38;9.30;;;;;;;12.02;88.90;99484.84;5026508;28;20329;-67
2022/09/23 02:54:32;;;;;;;;;;;;;;;12.06;89.03;99470.88;5026822;28;20025;-67
2022/09/23 02:57:01;;;;;;;12.52;9.40;;;;;;;11.99;88.57;99459.00;5026627;28;19909;-67
2022/09/23 02:59:28;;;;;;;14.07;9.90;;;;;;;12.02;88.29;99464.94;5026273;28;20033;-67
2022/09/23 03:02:12;;;;;;;9.73;8.68;;;;;;;12.15;89.01;99473.19;5026290;28;20033;-68
2022/09/23 03:04:50;;;;;;;11.10;9.18;;;;;;;12.14;88.16;99481.88;5026227;28;20214;-67
2022/09/23 03:07:31;;;;;;;10.30;9.00;;;;;;;12.13;88.89;99474.13;5026215;28;20360;-67
2022/09/23 03:10:12;;;;;;;10.93;9.13;;;;;;;12.15;88.86;99486.16;5026355;28;20258;-67
2022/09/23 03:13:04;;;;;;;11.27;9.60;;;;;;;12.12;88.62;99482.84;5026108;28;20088;-66
2022/09/23 03:16:05;;;;;;;10.30;9.13;;;;;;;12.12;88.11;99473.28;5017534;28;20038;-67
2022/09/23 03:18:47;;;;;;;10.43;9.07;;;;;;;11.87;88.40;99480.94;5008398;28;20197;-67
2022/09/23 03:21:16;;;;;;;11.23;9.48;;;;;;;11.81;89.13;99465.56;5025998;28;20076;-67
2022/09/23 03:23:43;;;;;;;10.32;9.05;;;;;;;12.02;88.83;99485.69;5025643;28;20014;-67
2022/09/23 03:26:21;;;;;;;11.82;9.52;;;;;;;11.99;88.71;99477.16;5026060;28;20318;-67
2022/09/23 03:28:49;;;;;;;13.73;9.63;;;;;;;11.89;88.08;99482.59;5025835;28;20098;-67
2022/09/23 03:31:16;;;;;;;12.00;9.43;;;;;;;11.86;88.78;99487.03;5025972;28;20109;-66
2022/09/23 03:33:47;;;;;;;12.32;9.65;;;;;;;11.71;89.60;99465.84;5025711;28;20030;-66
2022/09/23 03:39:07;;;;;;;9.90;8.70;;;;;;;11.84;88.91;99471.53;5025395;28;20037;-65
2022/09/23 03:41:47;;;;;;;11.70;9.68;;;;;;;11.88;88.98;99482.63;5006259;28;20034;-66
2022/09/23 03:44:14;;;;;;;9.88;8.73;;;;;;;11.98;87.74;99485.84;5022754;28;20069;-66
2022/09/23 03:46:41;;;;;;;10.55;9.20;;;;;;;11.92;88.51;99487.69;5007848;28;20250;-66
2022/09/23 03:49:15;;;;;;;13.02;9.73;;;;;;;11.94;88.80;99485.06;5025287;28;20022;-65
2022/09/23 03:51:40;;;;;;;9.88;8.93;;;;;;;11.95;88.63;99480.75;5025452;28;20372;-66
2022/09/23 03:54:06;;;;;;;12.05;9.32;;;;;;;11.95;88.69;99478.16;5025335;28;20041;-66
2022/09/23 03:56:31;;;;;;;10.48;8.88;;;;;;;11.92;87.89;99474.72;5025391;28;20376;-66
2022/09/23 03:58:57;;;;;;;11.50;8.13;;;;;;;11.95;88.36;99472.97;5025350;28;20347;-66
2022/09/23 04:01:22;;;;;;;9.05;8.15;;;;;;;12.03;88.43;99466.63;5025118;28;20084;-67
2022/09/23 04:03:48;;;;;;;11.05;9.50;;;;;;;12.09;88.38;99463.00;5007381;28;20052;-66
2022/09/23 04:06:14;;;;;;;10.18;9.18;;;;;;;12.12;87.96;99451.69;5025371;28;20092;-66
2022/09/23 04:08:39;;;;;;;11.00;8.65;;;;;;;12.12;88.23;99449.91;5025257;28;20026;-66
2022/09/23 04:11:05;;;;;;;12.88;8.68;;;;;;;12.12;87.86;99462.06;5025125;28;20056;-66
2022/09/23 04:13:31;;;;;;;9.20;8.10;;;;;;;12.04;86.71;99442.38;5025056;28;20030;-66
2022/09/23 04:15:57;;;;;;;9.63;8.63;;;;;;;11.97;87.40;99450.41;5024879;28;20026;-66
2022/09/23 04:18:22;;;;;;;8.30;7.47;;;;;;;12.13;87.18;99458.53;5024450;28;20036;-66
2022/09/23 04:20:48;;;;;;;12.45;9.00;;;;;;;12.24;87.65;99456.47;5024871;28;20046;-66
2022/09/23 04:23:14;;;;;;;9.15;8.10;;;;;;;12.09;86.57;99461.25;5024953;28;20322;-66
2022/09/23 04:25:47;;;;;;;12.75;8.48;;;;;;;12.08;86.21;99456.97;5024538;28;20290;-66
2022/09/23 04:28:12;;;;;;;12.52;7.07;;;;;;;12.14;85.48;99460.25;5007381;28;20036;-66
2022/09/23 04:30:43;;;;;;;9.40;7.18;;;;;;;12.24;85.99;99454.72;5024254;28;20272;-66
2022/09/23 04:33:12;;;;;;;9.85;8.18;;;;;;;12.24;85.64;99443.47;5024521;28;20153;-66
2022/09/23 04:35:39;;;;;;;8.27;7.38;;;;;;;12.21;85.68;99454.84;5024474;28;20049;-66
2022/09/23 04:38:06;;;;;;;8.75;6.93;;;;;;;12.34;85.61;99446.63;5024492;28;20072;-66
2022/09/23 04:40:32;;;;;;;8.68;7.40;;;;;;;12.31;84.86;99444.13;5024285;28;20049;-66
2022/09/23 04:42:57;;;;;;;7.80;6.93;;;;;;;12.34;85.24;99447.50;5007409;28;20295;-66
2022/09/23 04:45:23;;;;;;;7.93;7.13;;;;;;;12.47;84.91;99434.09;5024393;28;20045;-66
2022/09/23 04:47:49;;;;;;;11.55;6.72;;;;;;;12.39;82.78;99427.41;5024420;28;20053;-65
2022/09/23 04:50:15;;;;;;;7.53;6.55;;;;;;;12.43;83.26;99422.97;5024312;28;20040;-66
2022/09/23 04:52:40;;;;;;;6.85;5.90;;;;;;;12.42;83.40;99403.09;5006533;28;20029;-65
2022/09/23 04:55:07;;;;;;;8.05;6.07;;;;;;;12.58;82.89;99417.25;5023373;28;20092;-66
2022/09/23 04:57:33;;;;;;;8.93;6.97;;;;;;;12.58;83.40;99417.25;5023992;28;20025;-65
2022/09/23 04:59:59;;;;;;;8.80;7.07;;;;;;;12.58;83.78;99409.47;5023875;28;20041;-67
2022/09/23 05:02:27;;;;;;;7.47;6.78;;;;;;;12.51;82.37;99409.72;5023722;28;20044;-68
2022/09/23 05:04:53;;;;;;;9.25;6.40;;;;;;;12.52;82.80;99401.88;5023742;28;20045;-67
2022/09/23 05:07:18;;;;;;;8.40;6.00;;;;;;;12.57;82.63;99414.72;5023911;28;20029;-66
2022/09/23 05:09:44;;;;;;;7.78;6.80;;;;;;;12.66;82.82;99434.34;5023517;28;20034;-66
2022/09/23 05:12:10;;;;;;;7.05;6.25;;;;;;;12.74;83.07;99424.50;5024268;28;20034;-66
2022/09/23 05:14:37;;;;;;;6.68;5.82;;;;;;;12.69;82.74;99427.28;5004337;28;20093;-66
2022/09/23 05:17:04;;;;;;;8.07;6.25;;;;;;;12.66;81.18;99440.38;5014948;28;20042;-66
2022/09/23 05:19:29;;;;;;;6.22;5.63;;;;;;;12.78;82.54;99433.91;5015074;28;20030;-65
2022/09/23 05:21:55;;;;;;;6.90;6.10;;;;;;;12.67;81.03;99431.69;5024046;28;20052;-68
2022/09/23 05:24:21;;;;;;;6.07;5.47;;;;;;;12.60;80.81;99425.84;5020949;28;20367;-66
2022/09/23 05:26:47;;;;;;;7.75;5.57;;;;;;;12.72;80.93;99428.91;5004167;28;20314;-66
2022/09/23 05:29:12;;;;;;;8.48;6.22;;;;;;;12.66;80.27;99423.94;5020549;28;20025;-66
2022/09/23 05:31:38;;;;;;;9.15;6.35;;;;;;;12.59;80.12;99412.91;5023651;28;20025;-65
2022/09/23 05:34:05;;;;;;;8.15;5.68;;;;;;;12.47;80.49;99414.19;5023413;28;20326;-66
2022/09/23 05:36:33;;;;;;;7.88;5.65;;;;;;;12.41;81.84;99398.78;5022835;28;20457;-66
2022/09/23 05:38:59;;;;;;;6.32;5.72;;;;;;;12.59;81.74;99400.75;5023603;28;20045;-66
2022/09/23 05:41:25;;;;;;;8.43;6.43;;;;;;;12.48;81.34;99421.03;5023249;28;20029;-66
2022/09/23 05:43:52;;;;;;;9.82;6.05;;;;;;;12.47;81.65;99427.16;5005755;28;20321;-66
2022/09/23 05:46:21;;;;;;;6.30;5.68;;;;;;;12.55;81.76;99430.34;5023306;28;20026;-65
2022/09/23 05:48:48;;;;;;;6.57;5.43;;;;;;;12.72;82.09;99423.72;5023348;28;20313;-66
2022/09/23 05:51:16;;;;;;;7.85;5.15;;;;;;;12.79;82.12;99417.41;5023557;28;20101;-67
2022/09/23 05:53:44;;;;;;;6.72;6.03;;;;;;;12.98;82.24;99419.38;5023235;28;20038;-66
2022/09/23 05:56:15;;;;;;;7.30;6.35;;;;;;;12.81;81.74;99433.78;5023367;28;20080;-66
2022/09/23 05:58:41;;;;;;;8.70;6.53;;;;;;;12.77;82.04;99434.81;5022805;28;20092;-66
2022/09/23 06:01:16;;;;;;;6.72;6.03;;;;;;;12.70;81.03;99415.97;5023021;28;20954;-67
2022/09/23 06:03:46;;;;;;;7.85;6.35;;;;;;;12.68;82.64;99437.72;5022735;28;20057;-66
2022/09/23 06:06:16;;;;;;;7.30;6.22;;;;;;;12.68;81.79;99437.72;5022694;28;20101;-65
2022/09/23 06:08:43;;;;;;;8.38;6.78;;;;;;;12.55;81.81;99432.94;4985432;28;20254;-65
2022/09/23 06:11:11;;;;;;;8.80;7.05;;;;;;;12.68;81.91;99437.72;5018743;28;20021;-67
2022/09/23 06:13:37;;;;;;;11.10;7.28;;;;;;;12.69;82.09;99439.44;5022803;28;20085;-66
2022/09/23 06:16:08;;;;;;;8.75;6.50;;;;;;;12.54;82.15;99445.97;5022704;28;20477;-67
2022/09/23 06:18:34;;;;;;;6.90;6.20;;;;;;;12.66;81.60;99440.38;5022645;28;20034;-66
2022/09/23 06:21:01;;;;;;;9.02;6.25;;;;;;;12.66;82.36;99435.19;5023003;28;20360;-66
2022/09/23 06:23:28;;;;;;;8.90;6.07;;;;;;;12.66;82.68;99419.59;5023105;28;20325;-67
2022/09/23 06:25:59;;;;;;;8.02;5.95;;;;;;;12.56;83.04;99420.81;5005564;28;20302;-65
2022/09/23 06:28:27;;;;;;;11.98;5.78;;;;;;;12.70;83.32;99421.19;5022713;28;20030;-66
2022/09/23 06:30:56;;;;;;;7.18;5.72;;;;;;;12.68;82.17;99416.94;5022991;28;20037;-66
2022/09/23 06:33:22;;;;;;;8.43;5.93;;;;;;;12.57;83.46;99438.94;5023040;28;20030;-66
2022/09/23 06:35:48;;;;;;;7.07;5.85;;;;;;;12.59;83.37;99434.53;5022578;28;20056;-65
2022/09/23 06:38:13;;;;;;;7.07;6.03;;;;;;;12.73;83.76;99423.66;5011806;28;20038;-65
2022/09/23 06:40:39;;;;;;;8.13;6.28;;;;;;;12.72;82.14;99436.72;5014214;28;20033;-65
2022/09/23 06:43:04;;;;;;;6.20;5.60;;;;;;;12.67;82.05;99454.19;5022801;28;20026;-65
2022/09/23 06:45:30;;;;;;;5.85;5.35;;;;;;;12.87;81.96;99458.72;5022874;28;20073;-66
2022/09/23 06:47:56;;;;;;;8.05;5.22;;;;;;;12.89;81.56;99464.72;5022750;28;20030;-66
2022/09/23 06:50:26;;;;;;;8.38;5.57;;;;;;;12.92;81.18;99470.66;5022725;28;20034;-66
2022/09/23 06:52:54;;;;;;;7.68;5.50;;;;;;;12.89;82.03;99457.75;5022855;28;20064;-66
2022/09/23 06:55:26;;;;;;;5.93;5.20;;;;;;;13.00;82.19;99453.94;5022578;28;20058;-65
2022/09/23 06:57:52;;;;;;;;;;;;;;;13.06;81.85;99451.97;5023099;28;20076;-65
2022/09/23 07:00:19;;;;;;;8.68;5.43;;;;;;;13.03;82.20;99439.09;5002625;28;19910;-66
2022/09/23 07:02:45;;;;;;;7.85;5.80;;;;;;;13.10;82.04;99444.94;5022440;28;20397;-65
2022/09/23 07:05:11;;;;;;;7.88;6.05;;;;;;;12.98;81.67;99455.75;5022704;28;20065;-66
2022/09/23 07:07:37;;;;;;;8.52;6.60;;;;;;;13.03;81.99;99443.44;5022634;28;20057;-66
2022/09/23 07:10:06;;;;;;;7.03;6.18;;;;;;;13.10;81.48;99442.31;5022445;28;20353;-66
2022/09/23 07:12:32;;;;;;;7.13;5.85;;;;;;;12.77;80.53;99442.63;5022296;28;20317;-66
2022/09/23 07:14:58;;;;;;;6.20;5.60;;;;;;;12.93;81.01;99446.34;5022576;28;20052;-66
2022/09/23 07:17:24;;;;;;;6.50;5.82;;;;;;;12.97;81.45;99441.91;5022461;28;20218;-66
2022/09/23 07:19:53;;;;;;;9.10;6.55;;;;;;;12.81;79.15;99448.53;5025892;28;20314;-66
2022/09/23 07:22:23;;;;;;;7.28;5.65;;;;;;;12.75;80.78;99441.81;5025550;28;20076;-67
2022/09/23 07:24:54;;;;;;;6.28;5.68;;;;;;;12.77;79.64;99443.44;5026063;28;20053;-66
2022/09/23 07:27:22;;;;;;;6.40;5.80;;;;;;;12.87;80.74;99438.78;5025867;28;20034;-66
2022/09/23 07:29:49;;;;;;;7.95;5.88;;;;;;;12.91;80.39;99437.78;5025992;28;20029;-65
2022/09/23 07:32:15;;;;;;;9.88;7.50;;;;;;;12.90;79.31;99438.69;5025574;28;20034;-66
2022/09/23 07:34:42;;;;;;;9.13;6.45;;;;;;;12.71;79.73;99428.09;5007890;28;20030;-65
2022/09/23 07:37:09;;;;;;;9.50;7.15;;;;;;;12.88;80.21;99434.44;5025723;28;20080;-66
2022/09/23 07:39:35;;;;;;;8.63;5.88;;;;;;;12.83;79.98;99425.97;5025546;28;20038;-66
2022/09/23 07:42:04;;;;;;;7.47;6.20;;;;;;;13.01;80.36;99435.72;5025677;28;20345;-66
2022/09/23 07:44:30;;;;;;;6.55;5.93;;;;;;;13.00;80.57;99433.13;5025463;28;20033;-66
2022/09/23 07:46:57;;;;;;;7.60;6.03;;;;;;;12.91;78.67;99437.78;5025526;28;20030;-66
2022/09/23 07:49:23;;;;;;;5.75;5.05;;;;;;;12.91;78.28;99435.19;5025348;28;20073;-66
2022/09/23 07:51:48;;;;;;;6.00;5.40;;;;;;;12.88;79.36;99432.69;5025198;28;20097;-67
2022/09/23 07:54:15;;;;;;;5.28;4.88;;;;;;;12.94;78.80;99429.88;5019399;28;20052;-66
2022/09/23 07:56:42;;;;;;;6.28;4.82;;;;;;;12.94;78.10;99432.47;5024396;28;20062;-65
2022/09/23 07:59:11;;;;;;;8.82;5.75;;;;;;;13.02;79.35;99436.53;5025142;28;20092;-66
2022/09/23 08:01:40;;;;;;;7.72;5.00;;;;;;;13.09;78.99;99443.22;5025454;28;20306;-66
2022/09/23 08:04:16;;;;;;;6.68;5.72;;;;;;;12.89;78.52;99439.56;5025292;28;20033;-67
2022/09/23 08:06:56;;;;;;;6.43;5.32;;;;;;;13.01;78.65;99433.13;5024633;28;20132;-66
2022/09/23 08:09:25;;;;;;;5.45;4.93;;;;;;;13.05;78.30;99413.03;5024811;28;20032;-66
2022/09/23 08:11:51;;;;;;;8.55;5.05;;;;;;;13.07;76.87;99426.84;5021547;28;20097;-66
2022/09/23 08:14:17;;;;;;;5.07;4.57;;;;;;;13.20;77.88;99440.25;5020320;28;20053;-66
2022/09/23 08:16:45;;;;;;;5.60;4.97;;;;;;;13.23;77.03;99435.78;5015901;28;20053;-66
2022/09/23 08:19:12;;;;;;;4.70;4.30;;;;;;;13.08;76.64;99431.13;5018221;28;20080;-67
2022/09/23 08:21:39;;;;;;;5.82;4.45;;;;;;;13.08;77.20;99421.59;5006694;28;20069;-67
2022/09/23 08:24:06;;;;;;;5.40;4.30;;;;;;;13.21;77.71;99431.53;5024823;28;20125;-68
2022/09/23 08:26:33;;;;;;;5.43;4.93;;;;;;;13.22;76.60;99422.81;5004192;28;20025;-66
2022/09/23 08:28:59;;;;;;;6.00;4.47;;;;;;;13.34;77.70;99424.97;5006925;28;20324;-67
2022/09/23 08:31:25;;;;;;;5.10;4.25;;;;;;;13.33;78.41;99427.66;5024469;28;20022;-66
2022/09/23 08:33:55;;;;;;;5.00;4.55;;;;;;;13.28;77.58;99418.25;5024693;28;20394;-67
2022/09/23 08:36:21;;;;;;;6.07;4.60;;;;;;;13.36;77.20;99422.34;5022668;28;20037;-66
2022/09/23 08:38:47;;;;;;;5.90;4.20;;;;;;;13.38;77.15;99420.53;5018090;28;20038;-67
2022/09/23 08:41:33;;;;;;;5.75;4.63;;;;;;;13.46;77.64;99416.72;5018932;28;20102;-67
2022/09/23 08:44:12;;;;;;;5.53;4.28;;;;;;;13.44;76.28;99400.34;5024040;28;20252;-66
2022/09/23 08:46:55;;;;;;;7.75;4.82;;;;;;;13.33;76.98;99401.63;5018636;28;20081;-67
2022/09/23 08:49:56;;;;;;;4.60;4.20;;;;;;;13.42;75.69;99416.91;5023906;28;20025;-67
2022/09/23 08:52:47;;;;;;;6.43;4.57;;;;;;;13.46;75.96;99427.16;5010917;28;20037;-66
2022/09/23 08:55:14;;;;;;;5.75;4.38;;;;;;;13.53;76.22;99412.16;5023510;28;20034;-66
2022/09/23 08:57:55;;;;;;;4.55;4.13;;;;;;;13.51;76.10;99416.59;5023731;28;20040;-66
2022/09/23 09:00:24;;;;;;;5.75;4.35;;;;;;;13.54;75.63;99431.22;5024365;28;20037;-66
2022/09/23 09:02:49;;;;;;;9.57;4.60;;;;;;;13.40;74.64;99432.59;5023954;28;20029;-67
2022/09/23 09:05:24;;;;;;;4.97;4.57;;;;;;;13.40;74.87;99426.53;5023917;28;20065;-66
2022/09/23 09:07:52;;;;;;;4.57;4.18;;;;;;;13.53;75.32;99432.13;5023886;28;20062;-66
2022/09/23 09:10:22;;;;;;;7.20;4.57;;;;;;;13.37;75.50;99405.84;5022932;28;20030;-67
2022/09/23 09:13:08;;;;;;;5.22;4.57;;;;;;;13.47;73.70;99415.00;5023800;28;20034;-67
2022/09/23 09:15:43;;;;;;;5.43;4.20;;;;;;;13.30;72.65;99403.44;5021976;28;20029;-66
2022/09/23 09:18:20;;;;;;;5.85;3.70;;;;;;;13.38;71.43;99407.53;5004484;28;20315;-66
2022/09/23 09:21:01;;;;;;;5.13;3.90;;;;;;;13.42;72.50;99383.09;5022424;28;20038;-68
2022/09/23 09:23:38;;;;;;;6.13;4.68;;;;;;;13.62;72.95;99408.34;5023482;28;20314;-67
2022/09/23 09:26:05;;;;;;;6.32;4.93;;;;;;;13.62;74.19;99405.75;5023514;28;20045;-67
2022/09/23 09:28:51;;;;;;;5.47;3.80;;;;;;;13.44;72.16;99404.72;5023179;28;20029;-66
2022/09/23 09:31:34;;;;;;;5.95;4.97;;;;;;;13.42;72.50;99409.13;5023338;28;20341;-66
2022/09/23 09:34:27;;;;;;;5.95;4.50;;;;;;;13.44;71.61;99402.13;5018798;28;20116;-65
2022/09/23 09:37:18;;;;;;;5.93;3.67;;;;;;;13.38;71.98;99394.53;5018153;28;20054;-68
2022/09/23 09:39:43;;;;;;;4.75;4.10;;;;;;;13.38;70.80;99391.91;4999812;28;20293;-69
2022/09/23 09:42:20;;;;;;;6.47;4.25;;;;;;;13.43;70.91;99393.44;5022730;28;20022;-68
2022/09/23 09:44:57;;;;;;;4.72;3.97;;;;;;;13.36;71.39;99375.53;5023082;28;20075;-67
2022/09/23 09:47:45;;;;;;;4.70;4.07;;;;;;;13.63;71.53;99384.03;5023184;28;20100;-67
2022/09/23 09:50:17;;;;;;;7.20;4.25;;;;;;;13.55;71.08;99370.47;5009479;28;20049;-67
2022/09/23 09:52:43;;;;;;;8.20;4.75;;;;;;;13.77;71.30;99378.28;5013786;28;20021;-67
2022/09/23 09:55:12;;;;;;;4.90;3.97;;;;;;;13.74;69.79;99376.66;5023373;28;20028;-66
2022/09/23 09:57:43;;;;;;;4.95;4.45;;;;;;;13.83;71.38;99359.81;5023090;28;20034;-67
2022/09/23 10:00:21;;;;;;;5.45;4.90;;;;;;;13.88;68.94;99373.50;5005997;28;20325;-67
2022/09/23 10:03:13;;;;;;;5.82;5.20;;;;;;;13.76;68.09;99377.44;5023192;28;20096;-67
2022/09/23 10:05:44;;;;;;;10.13;5.80;;;;;;;13.75;67.48;99380.09;5012503;28;20104;-67
2022/09/23 10:08:34;;;;;;;7.97;5.15;;;;;;;13.60;67.22;99382.38;5009696;28;20050;-68
2022/09/23 10:11:28;;;;;;;6.85;5.40;;;;;;;13.65;67.34;99384.81;5015736;28;20026;-67
2022/09/23 10:14:16;;;;;;;9.80;5.57;;;;;;;13.75;68.30;99380.97;4991029;28;20088;-67
2022/09/23 10:16:43;;;;;;;5.85;5.22;;;;;;;13.87;68.54;99382.22;5013146;28;20037;-66
2022/09/23 10:19:14;;;;;;;6.95;4.72;;;;;;;13.94;68.46;99381.06;5018235;28;20034;-67
2022/09/23 10:21:41;;;;;;;5.67;4.90;;;;;;;13.86;67.29;99380.50;5004408;28;20084;-66
2022/09/23 10:24:07;;;;;;;7.05;5.40;;;;;;;14.00;69.18;99381.72;5005529;28;20038;-67
2022/09/23 10:26:50;;;;;;;6.13;4.75;;;;;;;14.11;69.89;99380.38;5022960;28;20113;-68
2022/09/23 10:29:29;;;;;;;7.38;6.05;;;;;;;14.08;69.55;99382.25;5008137;28;20274;-67
2022/09/23 10:32:24;;;;;;;5.88;4.78;;;;;;;14.14;68.98;99387.22;5014710;28;20202;-67
2022/09/23 10:35:00;;;;;;;7.47;4.90;;;;;;;14.11;69.70;99372.56;5006350;28;20042;-67
2022/09/23 10:37:36;;;;;;;7.30;5.55;;;;;;;14.19;69.05;99382.66;5022878;28;20095;-67
2022/09/23 10:46:44;;;;;;;6.00;4.15;;;;;;;14.27;68.69;99377.16;5023049;28;20030;-67
2022/09/23 10:49:51;;;;;;;5.57;4.63;;;;;;;14.25;68.90;99369.41;5022464;28;20052;-67
2022/09/23 10:53:02;;;;;;;6.93;4.50;;;;;;;14.28;67.79;99376.22;5022153;28;20065;-68
2022/09/23 10:55:36;;;;;;;5.30;4.05;;;;;;;14.33;68.31;99353.44;5026355;28;20045;-67
2022/09/23 10:58:35;;;;;;;4.30;4.00;;;;;;;14.23;67.71;99345.16;5026595;28;20032;-67
2022/09/23 11:01:29;;;;;;;7.47;4.70;;;;;;;14.24;67.36;99346.84;5026422;28;20053;-68
2022/09/23 11:03:57;;;;;;;5.10;3.75;;;;;;;14.26;67.32;99345.03;5026268;28;20088;-68
2022/09/23 11:06:36;;;;;;;4.75;4.22;;;;;;;14.19;67.25;99338.38;5008741;28;20038;-67
2022/09/23 11:09:13;;;;;;;5.20;4.60;;;;;;;14.22;67.20;99342.63;5004900;28;20053;-67
2022/09/23 11:11:48;;;;;;;5.13;4.40;;;;;;;14.23;66.88;99332.13;5026226;28;20036;-67
2022/09/23 11:14:22;;;;;;;5.47;4.40;;;;;;;14.25;67.13;99335.53;5026393;28;20053;-67
2022/09/23 11:17:04;;;;;;;5.45;4.18;;;;;;;14.36;68.61;99331.63;5026104;28;20061;-67
2022/09/23 11:19:56;;;;;;;5.05;3.97;;;;;;;14.32;68.45;99329.16;5025924;28;20097;-68
2022/09/23 11:22:40;;;;;;;4.63;4.05;;;;;;;14.38;68.39;99328.03;4989478;28;20088;-68
2022/09/23 11:25:17;;;;;;;4.70;4.20;;;;;;;14.36;66.79;99324.63;5025869;28;20072;-68
2022/09/23 11:28:07;;;;;;;4.85;3.83;;;;;;;14.44;67.72;99326.94;5025713;28;20068;-67
2022/09/23 11:31:05;;;;;;;4.88;4.00;;;;;;;14.40;66.82;99314.94;5025927;28;20042;-68
2022/09/23 11:33:39;;;;;;;5.32;3.83;;;;;;;14.40;66.47;99322.75;5013457;28;20294;-67
2022/09/23 11:36:10;;;;;;;5.68;4.03;;;;;;;14.14;64.69;99307.31;5006005;28;20057;-68
2022/09/23 11:38:43;;;;;;;4.75;3.80;;;;;;;14.24;65.69;99323.41;5021906;28;20048;-67
2022/09/23 11:41:26;;;;;;;5.60;4.35;;;;;;;14.18;65.92;99309.78;5025797;28;20034;-68
2022/09/23 11:44:02;;;;;;;5.75;3.90;;;;;;;14.15;66.59;99311.63;5025661;28;20030;-67
2022/09/23 11:46:50;;;;;;;7.13;3.90;;;;;;;14.20;66.18;99319.25;5007960;28;20053;-68
2022/09/23 11:49:30;;;;;;;5.05;4.05;;;;;;;14.13;65.96;99302.19;5008193;28;20038;-68
2022/09/23 11:52:07;;;;;;;4.32;3.92;;;;;;;14.29;65.74;99304.97;5008053;28;20097;-67
2022/09/23 11:54:44;;;;;;;4.90;3.60;;;;;;;14.27;66.86;99288.59;5025337;28;20041;-67
2022/09/23 11:57:22;;;;;;;3.85;3.53;;;;;;;14.26;65.54;99289.50;5006208;28;20179;-67
2022/09/23 11:59:58;;;;;;;7.75;3.75;;;;;;;14.32;65.83;99297.91;5023268;28;20033;-67
2022/09/23 12:02:45;;;;;;;4.50;4.10;;;;;;;14.43;64.91;99320.03;5025266;28;20033;-67
2022/09/23 12:05:21;;;;;;;4.97;4.47;;;;;;;14.37;66.31;99307.28;5007311;28;20347;-67
2022/09/23 12:08:11;;;;;;;5.18;4.03;;;;;;;14.53;66.00;99316.09;5025021;28;20363;-67